Time;durP1;ratioP1;P1;durP2;ratioP2;P2;SDS_P1;SDS_P2;PMS_P1;PMS_P2;Temp;Humidity;BMP_temperature;BMP_pressure;BME280_temperature;BME280_humidity;BME280_pressure;Samples;Min_cycle;Max_cycle;Signal;HPM_P1;HPM_P2
2022/04/24 00:02:20;0.00;0.00;0.62;0.00;0.00;0.62;2.33;1.57;;;27.90;20.80;;;;;;2255912;61;20381;-62
2022/04/24 00:05:06;0.00;0.00;0.62;0.00;0.00;0.62;1.93;1.30;;;27.90;20.80;;;;;;2255884;61;20417;-61
2022/04/24 00:07:51;0.00;0.00;0.62;0.00;0.00;0.62;2.00;1.53;;;27.80;20.80;;;;;;2255631;61;20365;-63
2022/04/24 00:10:38;0.00;0.00;0.62;0.00;0.00;0.62;2.00;1.57;;;27.80;20.80;;;;;;2252895;61;20389;-63
2022/04/24 00:13:23;0.00;0.00;0.62;0.00;0.00;0.62;1.80;1.47;;;27.80;20.80;;;;;;2255839;61;20382;-63
2022/04/24 00:16:09;0.00;0.00;0.62;0.00;0.00;0.62;2.17;1.60;;;27.80;21.40;;;;;;2255467;61;20422;-63
2022/04/24 00:18:54;0.00;0.00;0.62;0.00;0.00;0.62;2.60;1.63;;;27.80;21.50;;;;;;2255723;61;20369;-64
2022/04/24 00:21:38;0.00;0.00;0.62;0.00;0.00;0.62;1.93;1.40;;;27.80;20.90;;;;;;2256095;61;20417;-63
2022/04/24 00:24:24;0.00;0.00;0.62;0.00;0.00;0.62;1.90;1.37;;;27.80;20.90;;;;;;2255940;61;20369;-63
2022/04/24 00:27:10;0.00;0.00;0.62;0.00;0.00;0.62;4.13;1.73;;;27.80;21.00;;;;;;2255751;61;20941;-63
2022/04/24 00:29:55;0.00;0.00;0.62;0.00;0.00;0.62;1.80;1.47;;;27.80;21.00;;;;;;2255673;61;20378;-63
2022/04/24 00:32:39;0.00;0.00;0.62;0.00;0.00;0.62;2.20;1.40;;;27.80;21.00;;;;;;2256070;61;20933;-63
2022/04/24 00:35:24;0.00;0.00;0.62;0.00;0.00;0.62;3.57;1.50;;;27.80;21.00;;;;;;2256079;61;20397;-63
2022/04/24 00:38:09;0.00;0.00;0.62;0.00;0.00;0.62;2.00;1.60;;;27.80;21.00;;;;;;2255155;61;20404;-58
2022/04/24 00:40:54;0.00;0.00;0.62;0.00;0.00;0.62;1.67;1.53;;;27.80;21.00;;;;;;2256364;61;20914;-60
2022/04/24 00:43:40;0.00;0.00;0.62;0.00;0.00;0.62;1.90;1.60;;;27.80;20.90;;;;;;2256039;61;20377;-58
2022/04/24 00:46:51;0.00;0.00;0.62;0.00;0.00;0.62;1.70;1.60;;;27.80;20.70;;;;;;2255740;61;20858;-56
2022/04/24 00:49:35;0.00;0.00;0.62;0.00;0.00;0.62;2.50;2.03;;;27.80;20.60;;;;;;2254933;61;20425;-59
2022/04/24 00:52:20;0.00;0.00;0.62;0.00;0.00;0.62;2.77;2.00;;;27.80;20.50;;;;;;2256147;61;20425;-58
2022/04/24 00:55:06;0.00;0.00;0.62;0.00;0.00;0.62;2.23;2.00;;;27.80;20.40;;;;;;2257010;61;20765;-56
2022/04/24 00:57:51;0.00;0.00;0.62;0.00;0.00;0.62;2.53;2.33;;;27.80;20.30;;;;;;2255789;61;20374;-56
2022/04/24 01:00:38;0.00;0.00;0.62;0.00;0.00;0.62;4.40;2.00;;;27.80;20.30;;;;;;2256137;61;20358;-60
2022/04/24 01:03:23;0.00;0.00;0.62;0.00;0.00;0.62;2.23;1.77;;;27.70;20.10;;;;;;2256665;61;20386;-55
2022/04/24 01:06:08;0.00;0.00;0.62;0.00;0.00;0.62;1.80;1.60;;;27.70;20.10;;;;;;2256692;61;20412;-62
2022/04/24 01:08:53;0.00;0.00;0.62;0.00;0.00;0.62;2.53;1.80;;;27.70;20.00;;;;;;2256001;61;20404;-60
2022/04/24 01:11:39;0.00;0.00;0.62;0.00;0.00;0.62;2.60;1.90;;;27.70;20.00;;;;;;2255952;61;20409;-58
2022/04/24 01:14:26;0.00;0.00;0.62;0.00;0.00;0.62;2.37;1.90;;;27.60;19.90;;;;;;2256276;61;20358;-60
2022/04/24 01:17:12;0.00;0.00;0.62;0.00;0.00;0.62;2.43;2.23;;;27.60;19.90;;;;;;2257014;61;20366;-60
2022/04/24 01:19:57;0.00;0.00;0.62;0.00;0.00;0.62;3.03;2.03;;;27.60;19.90;;;;;;2255849;61;20386;-59
2022/04/24 01:22:43;0.00;0.00;0.62;0.00;0.00;0.62;2.40;1.90;;;27.60;19.90;;;;;;2255881;61;20910;-60
2022/04/24 01:25:28;0.00;0.00;0.62;0.00;0.00;0.62;3.57;2.20;;;27.50;19.80;;;;;;2256719;61;20405;-61
2022/04/24 01:28:12;0.00;0.00;0.62;0.00;0.00;0.62;2.47;2.10;;;27.50;19.80;;;;;;2256077;61;20454;-57
2022/04/24 01:30:57;0.00;0.00;0.62;0.00;0.00;0.62;3.10;2.37;;;27.50;19.70;;;;;;2256258;61;20412;-59
2022/04/24 01:33:41;0.00;0.00;0.62;0.00;0.00;0.62;2.90;2.27;;;27.50;19.70;;;;;;2256276;61;20370;-60
2022/04/24 01:36:27;0.00;0.00;0.62;0.00;0.00;0.62;3.53;2.10;;;27.40;19.70;;;;;;2256345;61;20840;-64
2022/04/24 01:39:15;0.00;0.00;0.62;0.00;0.00;0.62;4.40;1.93;;;27.40;19.60;;;;;;2256203;61;20444;-58
2022/04/24 01:42:00;0.00;0.00;0.62;0.00;0.00;0.62;2.80;2.47;;;27.40;19.60;;;;;;2255761;61;20429;-58
2022/04/24 01:44:45;0.00;0.00;0.62;0.00;0.00;0.62;2.87;2.10;;;27.40;19.60;;;;;;2256243;61;20377;-60
2022/04/24 01:47:29;0.00;0.00;0.62;0.00;0.00;0.62;3.37;2.30;;;27.40;19.60;;;;;;2256576;61;20362;-57
2022/04/24 01:50:14;0.00;0.00;0.62;0.00;0.00;0.62;2.70;2.30;;;27.40;19.60;;;;;;2255880;61;20381;-54
2022/04/24 01:52:58;0.00;0.00;0.62;0.00;0.00;0.62;2.20;2.00;;;27.30;20.10;;;;;;2255729;61;21226;-59
2022/04/24 01:55:44;0.00;0.00;0.62;0.00;0.00;0.62;2.87;1.93;;;27.30;19.50;;;;;;2256010;61;20362;-58
2022/04/24 01:58:29;0.00;0.00;0.62;0.00;0.00;0.62;2.70;2.40;;;27.30;19.50;;;;;;2256168;61;20420;-58
2022/04/24 02:01:14;0.00;0.00;0.62;0.00;0.00;0.62;2.50;2.10;;;27.30;19.50;;;;;;2256484;61;20357;-57
2022/04/24 02:03:58;0.00;0.00;0.62;0.00;0.00;0.62;2.23;1.83;;;27.20;19.50;;;;;;2256032;61;20362;-59
2022/04/24 02:06:44;0.00;0.00;0.62;0.00;0.00;0.62;2.87;2.20;;;27.20;19.50;;;;;;2255909;61;20769;-57
2022/04/24 02:09:29;0.00;0.00;0.62;0.00;0.00;0.62;2.50;1.93;;;27.20;19.40;;;;;;2256074;61;20925;-59
2022/04/24 02:12:15;0.00;0.00;0.62;0.00;0.00;0.62;2.40;2.10;;;27.20;19.40;;;;;;2256105;61;20781;-55
2022/04/24 02:14:59;0.00;0.00;0.62;0.00;0.00;0.62;1.90;1.70;;;27.20;19.50;;;;;;2255789;61;20388;-55
2022/04/24 02:17:44;0.00;0.00;0.62;0.00;0.00;0.62;2.43;2.17;;;27.10;19.40;;;;;;2252905;61;20401;-58
2022/04/24 02:20:29;0.00;0.00;0.62;0.00;0.00;0.62;2.40;2.20;;;27.10;19.40;;;;;;2256412;61;20768;-54
2022/04/24 02:23:13;0.00;0.00;0.62;0.00;0.00;0.62;2.60;2.40;;;27.10;19.40;;;;;;2256099;61;21044;-61
2022/04/24 02:25:58;0.00;0.00;0.62;0.00;0.00;0.62;3.17;2.27;;;27.00;19.30;;;;;;2256077;61;20887;-58
2022/04/24 02:28:44;0.00;0.00;0.62;0.00;0.00;0.62;2.63;2.43;;;27.00;19.30;;;;;;2255515;61;20978;-63
2022/04/24 02:31:28;0.00;0.00;0.62;0.00;0.00;0.62;2.70;2.30;;;27.00;19.40;;;;;;2256120;61;20382;-61
2022/04/24 02:34:13;0.00;0.00;0.62;0.00;0.00;0.62;2.30;2.10;;;27.00;19.30;;;;;;2255929;61;20825;-59
2022/04/24 02:36:58;0.00;0.00;0.62;0.00;0.00;0.62;2.50;2.13;;;27.00;19.40;;;;;;2255750;61;20914;-60
2022/04/24 02:39:43;0.00;0.00;0.62;0.00;0.00;0.62;2.40;2.20;;;26.90;19.30;;;;;;2255917;61;20389;-58
2022/04/24 02:42:27;0.00;0.00;0.62;0.00;0.00;0.62;2.30;2.10;;;26.90;19.40;;;;;;2255622;61;20885;-61
2022/04/24 02:45:13;0.00;0.00;0.62;0.00;0.00;0.62;3.70;2.30;;;26.90;19.40;;;;;;2256223;61;20362;-55
2022/04/24 02:47:58;0.00;0.00;0.62;0.00;0.00;0.62;2.40;2.07;;;26.80;19.30;;;;;;2255574;61;20362;-59
2022/04/24 02:50:42;0.00;0.00;0.62;0.00;0.00;0.62;2.63;2.43;;;26.80;19.30;;;;;;2255911;61;20389;-66
2022/04/24 02:53:27;0.00;0.00;0.62;0.00;0.00;0.62;2.80;2.20;;;26.80;19.30;;;;;;2256427;61;20386;-62
2022/04/24 02:56:11;0.00;0.00;0.62;0.00;0.00;0.62;2.40;1.90;;;26.80;19.30;;;;;;2255916;61;20436;-59
2022/04/24 02:58:56;0.00;0.00;0.62;0.00;0.00;0.62;2.87;2.67;;;26.80;19.30;;;;;;2255343;61;20845;-61
2022/04/24 03:01:42;0.00;0.00;0.62;0.00;0.00;0.62;2.60;2.10;;;26.80;19.30;;;;;;2252968;61;20452;-61
2022/04/24 03:04:27;0.00;0.00;0.62;0.00;0.00;0.62;2.50;2.30;;;26.70;19.30;;;;;;2256118;61;20374;-59
2022/04/24 03:07:12;0.00;0.00;0.62;0.00;0.00;0.62;2.17;1.97;;;26.70;19.30;;;;;;2252795;61;20397;-58
2022/04/24 03:09:56;0.00;0.00;0.62;0.00;0.00;0.62;2.53;2.07;;;26.70;19.30;;;;;;2255478;61;20390;-60
2022/04/24 03:12:42;0.00;0.00;0.62;0.00;0.00;0.62;2.73;2.37;;;26.60;19.20;;;;;;2255934;61;20436;-59
2022/04/24 03:15:27;0.00;0.00;0.62;0.00;0.00;0.62;2.40;1.90;;;26.60;19.20;;;;;;2255968;61;20413;-58
2022/04/24 03:18:12;0.00;0.00;0.62;0.00;0.00;0.62;3.10;1.90;;;26.60;19.20;;;;;;2255535;61;20389;-60
2022/04/24 03:20:57;0.00;0.00;0.62;0.00;0.00;0.62;2.90;2.60;;;26.60;19.20;;;;;;2255960;61;20378;-55
2022/04/24 03:23:42;0.00;0.00;0.62;0.00;0.00;0.62;2.00;1.63;;;26.60;19.20;;;;;;2256198;61;20381;-62
2022/04/24 03:26:26;0.00;0.00;0.62;0.00;0.00;0.62;4.20;2.13;;;26.60;19.20;;;;;;2252985;61;20362;-60
2022/04/24 03:29:11;0.00;0.00;0.62;0.00;0.00;0.62;2.07;1.87;;;26.50;19.20;;;;;;2255403;61;20785;-60
2022/04/24 03:31:55;0.00;0.00;0.62;0.00;0.00;0.62;2.17;1.97;;;26.50;19.20;;;;;;2255471;61;20413;-60
2022/04/24 03:34:41;0.00;0.00;0.62;0.00;0.00;0.62;2.20;1.60;;;26.50;19.20;;;;;;2255935;61;20428;-59
2022/04/24 03:37:27;0.00;0.00;0.62;0.00;0.00;0.62;2.20;2.00;;;26.50;19.30;;;;;;2256170;61;20885;-58
2022/04/24 03:40:12;0.00;0.00;0.62;0.00;0.00;0.62;2.47;2.00;;;26.40;19.20;;;;;;2255366;61;20820;-59
2022/04/24 03:42:56;0.00;0.00;0.62;0.00;0.00;0.62;2.40;1.90;;;26.40;19.20;;;;;;2255661;61;20381;-60
2022/04/24 03:45:41;0.00;0.00;0.62;0.00;0.00;0.62;2.00;1.80;;;26.40;19.20;;;;;;2256120;61;20873;-57
2022/04/24 03:48:25;0.00;0.00;0.62;0.00;0.00;0.62;2.70;1.87;;;26.40;19.20;;;;;;2255484;61;20358;-60
2022/04/24 03:51:11;0.00;0.00;0.62;0.00;0.00;0.62;2.10;1.90;;;26.30;19.20;;;;;;2255392;61;20444;-60
2022/04/24 03:53:56;0.00;0.00;0.62;0.00;0.00;0.62;3.07;1.90;;;26.30;19.20;;;;;;2255613;61;20450;-61
2022/04/24 03:56:40;0.00;0.00;0.62;0.00;0.00;0.62;2.40;2.07;;;26.30;19.20;;;;;;2256043;61;20366;-60
2022/04/24 03:59:25;0.00;0.00;0.62;0.00;0.00;0.62;1.97;1.77;;;26.30;19.20;;;;;;2255458;61;20401;-57
2022/04/24 04:02:09;0.00;0.00;0.62;0.00;0.00;0.62;2.77;2.07;;;26.30;19.20;;;;;;2255654;61;20385;-59
2022/04/24 04:04:54;0.00;0.00;0.62;0.00;0.00;0.62;2.37;1.90;;;26.20;19.20;;;;;;2255854;61;20441;-63
2022/04/24 04:07:40;0.00;0.00;0.62;0.00;0.00;0.62;2.50;2.30;;;26.20;19.20;;;;;;2256254;61;20385;-58
2022/04/24 04:10:25;0.00;0.00;0.62;0.00;0.00;0.62;2.20;1.83;;;26.20;19.70;;;;;;2255647;61;20389;-57
2022/04/24 04:13:09;0.00;0.00;0.62;0.00;0.00;0.62;2.43;1.87;;;26.20;19.20;;;;;;2255658;61;20968;-59
2022/04/24 04:15:54;0.00;0.00;0.62;0.00;0.00;0.62;2.20;1.93;;;26.20;19.20;;;;;;2255940;61;20592;-56
2022/04/24 04:18:39;0.00;0.00;0.62;0.00;0.00;0.62;2.23;1.87;;;26.20;19.20;;;;;;2255824;61;20381;-61
2022/04/24 04:21:23;0.00;0.00;0.62;0.00;0.00;0.62;2.80;2.37;;;26.10;19.20;;;;;;2255706;61;20478;-58
2022/04/24 04:24:09;0.00;0.00;0.62;0.00;0.00;0.62;2.30;1.70;;;26.10;19.20;;;;;;2255556;61;20428;-58
2022/04/24 04:26:54;0.00;0.00;0.62;0.00;0.00;0.62;2.43;1.90;;;26.10;19.20;;;;;;2255586;61;20480;-60
2022/04/24 04:29:38;0.00;0.00;0.62;0.00;0.00;0.62;2.23;1.83;;;26.10;19.20;;;;;;2253035;61;20444;-61
2022/04/24 04:32:23;0.00;0.00;0.62;0.00;0.00;0.62;2.03;1.63;;;26.00;19.10;;;;;;2255989;61;20404;-59
2022/04/24 04:35:09;0.00;0.00;0.62;0.00;0.00;0.62;1.87;1.63;;;26.00;19.20;;;;;;2256196;61;20397;-58
2022/04/24 04:37:54;0.00;0.00;0.62;0.00;0.00;0.62;2.23;1.97;;;26.00;19.20;;;;;;2256394;61;20365;-62
2022/04/24 04:40:40;0.00;0.00;0.62;0.00;0.00;0.62;1.87;1.47;;;26.00;19.30;;;;;;2256625;61;20361;-60
2022/04/24 04:43:26;0.00;0.00;0.62;0.00;0.00;0.62;2.50;2.00;;;26.00;19.30;;;;;;2256327;61;20428;-59
2022/04/24 04:46:11;0.00;0.00;0.62;0.00;0.00;0.62;3.67;2.20;;;25.90;19.20;;;;;;2256295;61;20498;-53
2022/04/24 04:48:55;0.00;0.00;0.62;0.00;0.00;0.62;2.33;1.80;;;25.90;19.20;;;;;;2255841;61;20374;-58
2022/04/24 04:51:39;0.00;0.00;0.62;0.00;0.00;0.62;2.90;2.10;;;25.90;19.30;;;;;;2251283;61;20482;-60
2022/04/24 04:54:24;0.00;0.00;0.62;0.00;0.00;0.62;2.07;1.87;;;25.90;19.30;;;;;;2255802;61;20587;-63
2022/04/24 04:57:10;0.00;0.00;0.62;0.00;0.00;0.62;1.80;1.50;;;25.90;19.30;;;;;;2256037;61;20415;-56
2022/04/24 04:59:55;0.00;0.00;0.62;0.00;0.00;0.62;2.70;1.87;;;25.80;19.30;;;;;;2256537;61;20768;-56
2022/04/24 05:02:40;0.00;0.00;0.62;0.00;0.00;0.62;2.13;1.83;;;25.80;19.30;;;;;;2256439;61;20437;-54
2022/04/24 05:05:26;0.00;0.00;0.62;0.00;0.00;0.62;2.57;1.83;;;25.80;19.30;;;;;;2256236;61;20570;-59
2022/04/24 05:08:10;0.00;0.00;0.62;0.00;0.00;0.62;2.60;1.83;;;25.80;19.30;;;;;;2255978;61;20766;-57
2022/04/24 05:10:55;0.00;0.00;0.62;0.00;0.00;0.62;2.47;2.27;;;25.80;19.30;;;;;;2255979;61;20437;-58
2022/04/24 05:13:41;0.00;0.00;0.62;0.00;0.00;0.62;2.17;1.97;;;25.80;19.30;;;;;;2256626;61;20366;-59
2022/04/24 05:16:25;0.00;0.00;0.62;0.00;0.00;0.62;2.20;1.80;;;25.80;19.40;;;;;;2255809;61;20358;-61
2022/04/24 05:19:10;0.00;0.00;0.62;0.00;0.00;0.62;2.20;1.47;;;25.70;19.30;;;;;;2255740;61;20393;-59
2022/04/24 05:21:54;0.00;0.00;0.62;0.00;0.00;0.62;2.50;1.70;;;25.80;19.40;;;;;;2256708;61;20525;-60
2022/04/24 05:24:39;0.00;0.00;0.62;0.00;0.00;0.62;2.80;1.87;;;25.70;19.30;;;;;;2256096;61;20361;-57
2022/04/24 05:27:24;0.00;0.00;0.62;0.00;0.00;0.62;2.20;2.00;;;25.70;19.30;;;;;;2256047;61;20353;-56
2022/04/24 05:30:11;0.00;0.00;0.62;0.00;0.00;0.62;2.93;2.13;;;25.70;19.40;;;;;;2255737;61;20386;-59
2022/04/24 05:32:56;0.00;0.00;0.62;0.00;0.00;0.62;2.47;1.70;;;25.70;19.40;;;;;;2256022;61;20449;-62
2022/04/24 05:35:41;0.00;0.00;0.62;0.00;0.00;0.62;2.27;1.90;;;25.60;19.40;;;;;;2256522;61;20502;-60
2022/04/24 05:38:25;0.00;0.00;0.62;0.00;0.00;0.62;2.20;1.90;;;25.60;19.40;;;;;;2255697;61;20433;-57
2022/04/24 05:41:09;0.00;0.00;0.62;0.00;0.00;0.62;2.30;1.83;;;25.60;19.40;;;;;;2255795;61;20354;-58
2022/04/24 05:43:54;0.00;0.00;0.62;0.00;0.00;0.62;3.07;1.93;;;25.60;19.40;;;;;;2256794;61;20432;-55
2022/04/24 05:46:40;0.00;0.00;0.62;0.00;0.00;0.62;2.73;2.43;;;25.60;19.40;;;;;;2255996;61;20925;-61
2022/04/24 05:49:25;0.00;0.00;0.62;0.00;0.00;0.62;3.30;2.47;;;25.50;19.40;;;;;;2255598;61;20458;-58
2022/04/24 05:52:09;0.00;0.00;0.62;0.00;0.00;0.62;2.40;2.10;;;25.50;19.40;;;;;;2256453;61;20392;-58
2022/04/24 05:54:54;0.00;0.00;0.62;0.00;0.00;0.62;2.17;1.90;;;25.50;19.40;;;;;;2256152;61;20926;-65
2022/04/24 05:57:39;0.00;0.00;0.62;0.00;0.00;0.62;2.23;1.80;;;25.50;19.40;;;;;;2256463;61;20366;-61
2022/04/24 06:00:23;0.00;0.00;0.62;0.00;0.00;0.62;2.10;1.80;;;25.50;19.50;;;;;;2255862;61;20448;-59
2022/04/24 06:03:09;0.00;0.00;0.62;0.00;0.00;0.62;2.33;2.13;;;25.50;19.50;;;;;;2256137;61;20385;-58
2022/04/24 06:05:54;0.00;0.00;0.62;0.00;0.00;0.62;1.90;1.50;;;25.50;19.50;;;;;;2256677;61;20465;-57
2022/04/24 06:08:39;0.00;0.00;0.62;0.00;0.00;0.62;2.33;2.07;;;25.50;19.50;;;;;;2255533;61;20358;-56
2022/04/24 06:11:24;0.00;0.00;0.62;0.00;0.00;0.62;2.33;1.70;;;25.50;19.40;;;;;;2255661;61;20385;-54
2022/04/24 06:14:08;0.00;0.00;0.62;0.00;0.00;0.62;1.97;1.57;;;25.50;19.40;;;;;;2256507;61;20416;-56
2022/04/24 06:16:53;0.00;0.00;0.62;0.00;0.00;0.62;2.67;2.10;;;25.40;19.30;;;;;;2256552;61;21038;-50
2022/04/24 06:19:39;0.00;0.00;0.62;0.00;0.00;0.62;3.30;1.70;;;25.40;19.30;;;;;;2256187;61;20940;-65
2022/04/24 06:22:24;0.00;0.00;0.62;0.00;0.00;0.62;2.17;1.93;;;25.40;19.30;;;;;;2255778;61;20436;-57
2022/04/24 06:25:09;0.00;0.00;0.62;0.00;0.00;0.62;3.40;1.80;;;25.40;19.40;;;;;;2256479;61;20406;-64
2022/04/24 06:27:54;0.00;0.00;0.62;0.00;0.00;0.62;2.40;1.70;;;25.40;19.40;;;;;;2255952;61;20362;-64
2022/04/24 06:30:40;0.00;0.00;0.62;0.00;0.00;0.62;2.27;1.77;;;25.30;19.40;;;;;;2256077;61;20918;-53
2022/04/24 06:33:25;0.00;0.00;0.62;0.00;0.00;0.62;2.30;1.83;;;25.30;19.50;;;;;;2258053;61;20936;-63
2022/04/24 06:36:11;0.00;0.00;0.62;0.00;0.00;0.62;2.87;1.83;;;25.40;19.60;;;;;;2261899;58;20369;-57
2022/04/24 06:38:55;0.00;0.00;0.62;0.00;0.00;0.62;2.73;1.33;;;25.30;19.60;;;;;;2259161;61;20373;-57
2022/04/24 06:41:40;0.00;0.00;0.62;0.00;0.00;0.62;3.00;1.60;;;25.30;19.60;;;;;;2259863;61;20389;-63
2022/04/24 06:44:24;0.00;0.00;0.62;0.00;0.00;0.62;1.77;1.57;;;25.30;19.60;;;;;;2260056;61;20391;-66
2022/04/24 06:47:09;0.00;0.00;0.62;0.00;0.00;0.62;2.50;1.70;;;25.30;19.60;;;;;;2260120;61;20360;-61
2022/04/24 06:49:53;0.00;0.00;0.62;0.00;0.00;0.62;2.37;1.77;;;25.30;19.70;;;;;;2256451;61;20472;-66
2022/04/24 06:52:39;0.00;0.00;0.62;0.00;0.00;0.62;3.10;1.73;;;25.30;19.70;;;;;;2259712;61;20384;-64
2022/04/24 06:55:24;0.00;0.00;0.62;0.00;0.00;0.62;2.63;1.37;;;25.30;19.80;;;;;;2259618;61;20376;-51
2022/04/24 06:58:12;0.00;0.00;0.62;0.00;0.00;0.62;2.37;1.80;;;25.30;19.80;;;;;;2260056;61;20518;-56
2022/04/24 07:00:57;0.00;0.00;0.62;0.00;0.00;0.62;1.90;1.67;;;25.30;19.80;;;;;;2260067;61;20357;-55
2022/04/24 07:03:41;0.00;0.00;0.62;0.00;0.00;0.62;3.40;1.50;;;25.30;19.70;;;;;;2259804;61;20400;-55
2022/04/24 07:06:26;0.00;0.00;0.62;0.00;0.00;0.62;1.80;1.47;;;25.30;19.70;;;;;;2259636;61;20396;-59
2022/04/24 07:09:13;0.00;0.00;0.62;0.00;0.00;0.62;3.07;1.40;;;25.30;19.70;;;;;;2259370;61;20832;-67
2022/04/24 07:11:57;0.00;0.00;0.62;0.00;0.00;0.62;2.50;1.50;;;25.30;19.70;;;;;;2260022;61;20431;-53
2022/04/24 07:14:42;0.00;0.00;0.62;0.00;0.00;0.62;3.37;2.10;;;25.30;19.80;;;;;;2260008;61;20364;-55
2022/04/24 07:17:27;0.00;0.00;0.62;0.00;0.00;0.62;2.00;1.40;;;25.30;19.80;;;;;;2259637;61;20361;-51
2022/04/24 07:20:13;0.00;0.00;0.62;0.00;0.00;0.62;3.60;1.83;;;25.30;19.80;;;;;;2260355;61;20412;-52
2022/04/24 07:23:05;0.00;0.00;0.62;0.00;0.00;0.62;2.07;1.83;;;25.30;19.80;;;;;;2259715;61;20895;-54
2022/04/24 07:25:51;0.00;0.00;0.62;0.00;0.00;0.62;3.43;2.10;;;25.30;19.70;;;;;;2259691;61;20402;-52
2022/04/24 07:28:36;0.00;0.00;0.62;0.00;0.00;0.62;2.97;1.90;;;25.30;19.60;;;;;;2259528;61;20438;-56
2022/04/24 07:31:21;0.00;0.00;0.62;0.00;0.00;0.62;2.20;1.53;;;25.30;19.50;;;;;;2260415;61;20463;-52
2022/04/24 07:34:05;0.00;0.00;0.62;0.00;0.00;0.62;2.10;1.53;;;25.30;19.60;;;;;;2260818;61;20365;-57
2022/04/24 07:36:50;0.00;0.00;0.62;0.00;0.00;0.62;3.10;1.90;;;25.30;19.70;;;;;;2260719;61;20436;-54
2022/04/24 07:39:34;0.00;0.00;0.62;0.00;0.00;0.62;2.40;1.80;;;25.30;19.70;;;;;;2259336;61;20360;-57
2022/04/24 07:42:20;0.00;0.00;0.62;0.00;0.00;0.62;2.17;1.50;;;25.30;19.80;;;;;;2260463;61;20412;-59
2022/04/24 07:45:05;0.00;0.00;0.62;0.00;0.00;0.62;2.30;1.60;;;25.30;19.80;;;;;;2260016;61;20369;-65
2022/04/24 07:47:51;0.00;0.00;0.62;0.00;0.00;0.62;2.50;1.53;;;25.30;19.90;;;;;;2259879;61;20814;-65
2022/04/24 07:50:39;0.00;0.00;0.62;0.00;0.00;0.62;2.60;1.57;;;25.30;19.90;;;;;;2257988;61;20467;-59
2022/04/24 07:53:24;0.00;0.00;0.62;0.00;0.00;0.62;2.27;1.53;;;25.30;20.00;;;;;;2260964;61;20376;-57
2022/04/24 07:56:08;0.00;0.00;0.62;0.00;0.00;0.62;3.00;1.70;;;25.30;20.00;;;;;;2260995;61;20464;-59
2022/04/24 07:58:54;0.00;0.00;0.62;0.00;0.00;0.62;3.57;1.80;;;25.30;20.00;;;;;;2260199;61;20830;-60
2022/04/24 08:01:39;0.00;0.00;0.62;0.00;0.00;0.62;1.90;1.43;;;25.30;20.00;;;;;;2261364;61;20404;-62
2022/04/24 08:04:24;0.00;0.00;0.62;0.00;0.00;0.62;3.10;1.80;;;25.30;20.00;;;;;;2262216;61;20380;-61
2022/04/24 08:07:09;0.00;0.00;0.62;0.00;0.00;0.62;3.10;1.80;;;25.40;20.00;;;;;;2261362;61;20379;-57
2022/04/24 08:09:54;0.00;0.00;0.62;0.00;0.00;0.62;2.63;1.50;;;25.40;20.00;;;;;;2260803;61;20844;-58
2022/04/24 08:12:38;0.00;0.00;0.62;0.00;0.00;0.62;2.43;1.50;;;25.40;20.10;;;;;;2261842;61;20396;-61
2022/04/24 08:15:24;0.00;0.00;0.62;0.00;0.00;0.62;2.20;1.50;;;25.40;20.00;;;;;;2261886;61;20369;-62
2022/04/24 08:18:10;0.00;0.00;0.62;0.00;0.00;0.62;3.33;1.67;;;25.40;20.00;;;;;;2261542;61;20369;-61
2022/04/24 08:20:55;0.00;0.00;0.62;0.00;0.00;0.62;2.47;1.30;;;25.40;20.00;;;;;;2261439;61;20360;-61
2022/04/24 08:23:40;0.00;0.00;0.62;0.00;0.00;0.62;3.33;1.43;;;25.40;20.00;;;;;;2261779;61;20488;-58
2022/04/24 08:26:26;0.00;0.00;0.62;0.00;0.00;0.62;2.50;1.80;;;25.40;20.00;;;;;;2262129;61;20361;-58
2022/04/24 08:29:10;0.00;0.00;0.62;0.00;0.00;0.62;2.90;1.77;;;25.40;20.00;;;;;;2261032;61;20948;-60
2022/04/24 08:31:56;0.00;0.00;0.62;0.00;0.00;0.62;1.80;1.27;;;25.40;20.00;;;;;;2260467;61;20451;-60
2022/04/24 08:34:41;0.00;0.00;0.62;0.00;0.00;0.62;2.10;1.47;;;25.50;20.10;;;;;;2260800;61;20391;-61
2022/04/24 08:37:26;0.00;0.00;0.62;0.00;0.00;0.62;1.97;1.20;;;25.50;20.10;;;;;;2261120;61;20405;-60
2022/04/24 08:40:13;0.00;0.00;0.62;0.00;0.00;0.62;1.90;1.07;;;25.50;20.10;;;;;;2261433;61;20504;-62
2022/04/24 08:43:00;0.00;0.00;0.62;0.00;0.00;0.62;1.70;1.30;;;25.50;20.10;;;;;;2261437;61;20922;-63
2022/04/24 08:45:49;0.00;0.00;0.62;0.00;0.00;0.62;2.10;1.23;;;25.50;20.10;;;;;;2262164;61;20448;-60
2022/04/24 08:48:36;0.00;0.00;0.62;0.00;0.00;0.62;2.00;1.30;;;25.50;20.10;;;;;;2258257;61;20453;-60
2022/04/24 08:51:21;0.00;0.00;0.62;0.00;0.00;0.62;1.63;1.30;;;25.50;20.10;;;;;;2258288;61;20442;-61
2022/04/24 08:54:07;0.00;0.00;0.62;0.00;0.00;0.62;2.10;1.37;;;25.50;20.10;;;;;;2261856;61;20385;-59
2022/04/24 08:56:52;0.00;0.00;0.62;0.00;0.00;0.62;2.27;1.43;;;25.50;20.10;;;;;;2261761;61;20376;-61
2022/04/24 08:59:37;0.00;0.00;0.62;0.00;0.00;0.62;1.70;1.27;;;25.60;20.10;;;;;;2261612;61;20369;-59
2022/04/24 09:02:22;0.00;0.00;0.62;0.00;0.00;0.62;2.10;1.50;;;25.60;20.10;;;;;;2261587;61;20384;-61
2022/04/24 09:05:09;0.00;0.00;0.62;0.00;0.00;0.62;1.50;1.07;;;25.60;20.10;;;;;;2261760;61;20373;-61
2022/04/24 09:08:06;0.00;0.00;0.62;0.00;0.00;0.62;1.63;1.17;;;25.60;20.10;;;;;;2261632;61;20943;-60
2022/04/24 09:10:53;0.00;0.00;0.62;0.00;0.00;0.62;1.67;1.27;;;25.60;20.10;;;;;;2262088;61;20396;-59
2022/04/24 09:16:49;0.00;0.00;0.62;0.00;0.00;0.62;2.37;1.00;;;25.60;20.10;;;;;;2261639;61;20433;-60
2022/04/24 09:19:36;0.00;0.00;0.62;0.00;0.00;0.62;1.40;1.10;;;25.60;20.10;;;;;;2261050;61;20761;-59
2022/04/24 09:22:22;0.00;0.00;0.62;0.00;0.00;0.62;1.90;1.40;;;25.60;20.10;;;;;;2262025;61;20920;-59
2022/04/24 09:25:10;0.00;0.00;0.62;0.00;0.00;0.62;1.80;1.30;;;25.60;20.10;;;;;;2261886;61;20369;-60
2022/04/24 09:27:55;0.00;0.00;0.62;0.00;0.00;0.62;1.60;1.10;;;25.60;20.10;;;;;;2261027;61;20372;-61
2022/04/24 09:30:49;0.00;0.00;0.62;0.00;0.00;0.62;1.90;1.20;;;25.70;20.20;;;;;;2261723;61;20400;-61
2022/04/24 09:33:38;0.00;0.00;0.62;0.00;0.00;0.62;2.00;1.20;;;25.70;20.20;;;;;;2261455;61;20374;-60
2022/04/24 09:36:25;0.00;0.00;0.62;0.00;0.00;0.62;1.60;1.10;;;25.70;20.20;;;;;;2291273;58;20520;-61
2022/04/24 09:39:11;0.00;0.00;0.62;0.00;0.00;0.62;1.70;1.20;;;25.70;20.20;;;;;;2257122;61;20397;-55
2022/04/24 09:42:05;0.00;0.00;0.62;0.00;0.00;0.62;1.60;1.20;;;25.70;20.20;;;;;;2255994;61;20467;-58
2022/04/24 09:44:52;0.00;0.00;0.62;0.00;0.00;0.62;1.77;1.17;;;25.70;20.20;;;;;;2257426;61;20382;-59
2022/04/24 09:47:37;0.00;0.00;0.62;0.00;0.00;0.62;1.50;1.10;;;25.70;20.20;;;;;;2257003;61;20362;-59
2022/04/24 09:50:22;0.00;0.00;0.62;0.00;0.00;0.62;1.90;1.20;;;25.70;20.20;;;;;;2256930;61;20389;-58
2022/04/24 09:53:10;0.00;0.00;0.62;0.00;0.00;0.62;2.10;1.47;;;25.70;20.20;;;;;;2257394;61;20805;-62
2022/04/24 09:55:58;0.00;0.00;0.62;0.00;0.00;0.62;1.57;1.20;;;25.80;20.30;;;;;;2257902;61;20370;-61
2022/04/24 09:58:45;0.00;0.00;0.62;0.00;0.00;0.62;2.03;1.27;;;25.80;20.30;;;;;;2253957;61;20420;-58
2022/04/24 10:01:30;0.00;0.00;0.62;0.00;0.00;0.62;1.70;1.27;;;25.80;20.30;;;;;;2257704;61;20385;-58
2022/04/24 10:04:16;0.00;0.00;0.62;0.00;0.00;0.62;2.03;1.50;;;25.80;20.30;;;;;;2257138;61;20977;-61
2022/04/24 10:07:03;0.00;0.00;0.62;0.00;0.00;0.62;3.10;1.57;;;25.80;20.30;;;;;;2257873;61;20358;-55
2022/04/24 10:09:48;0.00;0.00;0.62;0.00;0.00;0.62;2.23;1.20;;;25.80;20.30;;;;;;2257451;61;20389;-60
2022/04/24 10:12:34;0.00;0.00;0.62;0.00;0.00;0.62;3.00;1.30;;;25.80;20.30;;;;;;2257483;61;20389;-61
2022/04/24 10:15:21;0.00;0.00;0.62;0.00;0.00;0.62;1.43;1.10;;;25.90;20.30;;;;;;2257359;61;20370;-60
2022/04/24 10:18:35;0.00;0.00;0.62;0.00;0.00;0.62;2.43;1.07;;;25.90;20.30;;;;;;2257519;61;20385;-59
2022/04/24 10:21:51;0.00;0.00;0.62;0.00;0.00;0.62;1.47;0.97;;;25.90;20.30;;;;;;2258119;61;20358;-60
2022/04/24 10:24:41;0.00;0.00;0.62;0.00;0.00;0.62;1.53;1.17;;;25.90;20.30;;;;;;2257469;61;20930;-62
2022/04/24 10:27:40;0.00;0.00;0.62;0.00;0.00;0.62;1.60;1.20;;;25.90;20.30;;;;;;2257044;61;20358;-56
2022/04/24 10:30:26;0.00;0.00;0.62;0.00;0.00;0.62;1.63;1.17;;;26.00;20.40;;;;;;2257518;61;20390;-62
2022/04/24 10:33:22;0.00;0.00;0.62;0.00;0.00;0.62;1.57;1.13;;;26.00;20.40;;;;;;2257679;61;20390;-58
2022/04/24 10:36:13;0.00;0.00;0.62;0.00;0.00;0.62;2.27;1.50;;;26.00;20.40;;;;;;2257563;61;20481;-60
2022/04/24 10:39:01;0.00;0.00;0.62;0.00;0.00;0.62;1.80;1.30;;;26.00;20.40;;;;;;2257415;61;20377;-59
2022/04/24 10:41:57;0.00;0.00;0.62;0.00;0.00;0.62;2.40;1.47;;;26.00;20.40;;;;;;2257112;61;20806;-62
2022/04/24 10:44:54;0.00;0.00;0.62;0.00;0.00;0.62;1.93;1.60;;;26.00;20.40;;;;;;2257628;61;20878;-58
2022/04/24 10:47:47;0.00;0.00;0.62;0.00;0.00;0.62;1.80;1.43;;;26.10;20.40;;;;;;2257722;61;20858;-59
2022/04/24 10:50:31;0.00;0.00;0.62;0.00;0.00;0.62;2.43;1.50;;;26.10;20.50;;;;;;2257077;61;20444;-58
2022/04/24 10:53:16;0.00;0.00;0.62;0.00;0.00;0.62;1.90;1.50;;;26.10;20.40;;;;;;2257488;61;20389;-61
2022/04/24 10:56:05;0.00;0.00;0.62;0.00;0.00;0.62;1.70;1.27;;;26.10;20.40;;;;;;2257148;61;20823;-63
2022/04/24 10:58:50;0.00;0.00;0.62;0.00;0.00;0.62;2.97;1.40;;;26.20;20.50;;;;;;2257534;61;20454;-61